createdAt,value
2017-09-27T00:00:40.858Z,22.03
2017-09-27T00:03:09.715Z,20.30
2017-09-27T00:05:37.812Z,21.37
2017-09-27T00:08:06.667Z,22.37
2017-09-27T00:10:34.845Z,21.10
2017-09-27T00:13:02.961Z,18.27
2017-09-27T00:15:31.044Z,20.57
2017-09-27T00:17:59.180Z,18.20
2017-09-27T00:20:27.274Z,20.17
2017-09-27T00:22:56.128Z,21.53
2017-09-27T00:25:24.219Z,23.40
2017-09-27T00:27:52.320Z,20.50
2017-09-27T00:30:20.466Z,21.70
2017-09-27T00:32:48.560Z,21.60
2017-09-27T00:35:16.801Z,19.40
2017-09-27T00:37:46.396Z,19.13
2017-09-27T00:40:14.587Z,17.60
2017-09-27T00:42:43.678Z,18.27
2017-09-27T00:45:11.777Z,20.67
2017-09-27T00:47:39.910Z,21.00
2017-09-27T00:50:08.007Z,21.90
2017-09-27T00:52:36.851Z,20.40
2017-09-27T00:55:04.955Z,21.80
2017-09-27T00:57:33.822Z,17.07
2017-09-27T01:00:01.967Z,17.30
2017-09-27T01:02:30.092Z,20.53
2017-09-27T01:04:58.223Z,22.57
2017-09-27T01:07:26.336Z,19.77
2017-09-27T01:09:55.312Z,20.70
2017-09-27T01:12:23.464Z,19.80
2017-09-27T01:14:51.559Z,21.87
2017-09-27T01:17:36.472Z,20.40
2017-09-27T01:20:04.568Z,22.20
2017-09-27T01:22:32.877Z,19.63
2017-09-27T01:25:00.978Z,22.70
2017-09-27T01:27:29.076Z,19.40
2017-09-27T01:29:57.172Z,19.77
2017-09-27T01:32:25.264Z,19.00
2017-09-27T01:34:54.119Z,21.23
2017-09-27T01:37:22.222Z,20.40
2017-09-27T01:39:51.085Z,18.70
2017-09-27T01:42:19.170Z,16.97
2017-09-27T01:44:48.036Z,19.70
2017-09-27T01:47:16.141Z,18.90
2017-09-27T01:49:44.992Z,18.50
2017-09-27T01:52:13.075Z,21.63
2017-09-27T01:54:41.263Z,19.67
2017-09-27T01:57:10.115Z,18.77
2017-09-27T01:59:38.215Z,18.37
2017-09-27T02:02:06.307Z,20.70
2017-09-27T02:04:34.443Z,19.00
2017-09-27T02:07:02.541Z,18.20
2017-09-27T02:09:31.402Z,19.17
2017-09-27T02:11:59.503Z,17.50
2017-09-27T02:14:28.367Z,18.30
2017-09-27T02:16:56.459Z,18.87
2017-09-27T02:19:25.334Z,20.50
2017-09-27T02:21:53.584Z,19.30
2017-09-27T02:24:21.676Z,20.60
2017-09-27T02:26:49.768Z,18.17
2017-09-27T02:29:18.712Z,17.00
2017-09-27T02:31:46.808Z,18.80
2017-09-27T02:34:15.092Z,19.67
2017-09-27T02:36:43.947Z,19.67
2017-09-27T02:39:12.143Z,20.13
2017-09-27T02:41:40.235Z,19.70
2017-09-27T02:44:09.113Z,19.87
2017-09-27T02:46:37.213Z,22.00
2017-09-27T02:49:06.072Z,23.70
2017-09-27T02:51:34.926Z,22.30
2017-09-27T02:54:03.141Z,21.80
2017-09-27T02:56:31.236Z,21.07
2017-09-27T02:58:59.411Z,22.20
2017-09-27T03:01:27.504Z,22.33
2017-09-27T03:03:55.803Z,18.23
2017-09-27T03:06:25.423Z,20.90
2017-09-27T03:08:54.295Z,20.60
2017-09-27T03:11:22.387Z,18.73
2017-09-27T03:13:51.247Z,17.53
2017-09-27T03:16:19.351Z,19.50
2017-09-27T03:18:48.203Z,17.37
2017-09-27T03:21:16.307Z,20.27
2017-09-27T03:23:45.297Z,21.07
2017-09-27T03:26:13.572Z,25.17
2017-09-27T03:28:41.668Z,28.87
2017-09-27T03:31:09.762Z,24.83
2017-09-27T03:33:37.849Z,23.10
2017-09-27T03:36:05.950Z,30.27
2017-09-27T03:38:34.083Z,28.97
2017-09-27T03:41:02.223Z,28.13
2017-09-27T03:43:30.311Z,22.53
2017-09-27T03:45:58.416Z,27.00
2017-09-27T03:48:26.595Z,23.37
2017-09-27T03:50:56.200Z,22.77
2017-09-27T03:53:24.293Z,21.87
2017-09-27T03:55:53.278Z,22.07
2017-09-27T03:58:21.406Z,20.50
2017-09-27T04:00:49.631Z,21.10
2017-09-27T04:03:17.725Z,20.50
2017-09-27T04:05:45.841Z,21.80
2017-09-27T04:08:13.945Z,22.87
2017-09-27T04:10:42.931Z,27.90
2017-09-27T04:13:11.212Z,21.63
2017-09-27T04:15:39.470Z,20.53
2017-09-27T04:18:07.569Z,22.63
2017-09-27T04:20:36.023Z,25.87
2017-09-27T04:23:04.109Z,24.00
2017-09-27T04:25:32.202Z,22.73
2017-09-27T04:28:00.432Z,20.37
2017-09-27T04:30:28.531Z,20.63
2017-09-27T04:32:56.661Z,29.07
2017-09-27T04:35:24.771Z,37.93
2017-09-27T04:37:52.860Z,32.23
2017-09-27T04:40:20.948Z,24.50
2017-09-27T04:42:49.063Z,21.67
2017-09-27T04:45:17.151Z,20.67
2017-09-27T04:47:45.274Z,18.17
2017-09-27T04:50:13.425Z,19.50
2017-09-27T04:52:41.519Z,18.37
2017-09-27T04:55:09.703Z,21.17
2017-09-27T04:57:37.956Z,18.30
2017-09-27T05:00:06.151Z,31.40
2017-09-27T05:02:35.738Z,26.73
2017-09-27T05:05:03.840Z,23.53
2017-09-27T05:07:32.713Z,27.63
2017-09-27T05:10:00.939Z,29.53
2017-09-27T05:12:29.176Z,20.30
2017-09-27T05:14:57.459Z,18.43
2017-09-27T05:17:25.547Z,19.37
2017-09-27T05:19:53.646Z,20.70
2017-09-27T05:22:21.744Z,23.53
2017-09-27T05:24:49.858Z,29.97
2017-09-27T05:27:18.719Z,26.47
2017-09-27T05:29:46.808Z,30.80
2017-09-27T05:32:15.783Z,29.10
2017-09-27T05:34:43.873Z,28.97
2017-09-27T05:37:11.963Z,24.13
2017-09-27T05:39:40.068Z,21.93
2017-09-27T05:42:08.167Z,20.30
2017-09-27T05:44:37.025Z,17.67
2017-09-27T05:47:05.472Z,17.60
2017-09-27T05:49:33.557Z,18.30
2017-09-27T05:52:01.654Z,22.10
2017-09-27T05:54:29.753Z,26.37
2017-09-27T05:56:58.615Z,22.30
2017-09-27T05:59:26.829Z,22.47
2017-09-27T06:01:54.959Z,23.13
2017-09-27T06:04:23.063Z,24.90
2017-09-27T06:06:51.920Z,37.20
2017-09-27T06:09:20.015Z,35.30
2017-09-27T06:11:48.202Z,33.57
2017-09-27T06:14:16.291Z,26.17
2017-09-27T06:16:44.382Z,27.00
2017-09-27T06:19:12.468Z,27.33
2017-09-27T06:21:40.563Z,28.30
2017-09-27T06:24:09.419Z,26.10
2017-09-27T06:26:37.515Z,28.47
2017-09-27T06:29:06.384Z,25.10
2017-09-27T06:31:34.492Z,25.90
2017-09-27T06:34:02.668Z,28.80
2017-09-27T06:36:30.764Z,26.80
2017-09-27T06:38:58.853Z,24.77
2017-09-27T06:41:26.955Z,24.57
2017-09-27T06:43:55.035Z,22.70
2017-09-27T06:46:23.125Z,22.87
2017-09-27T06:48:51.635Z,19.80
2017-09-27T06:51:19.762Z,18.90
2017-09-27T06:53:47.866Z,18.50
2017-09-27T06:56:15.971Z,19.73
2017-09-27T06:58:44.151Z,21.00
2017-09-27T07:01:12.318Z,20.87
2017-09-27T07:03:40.403Z,17.97
2017-09-27T07:06:09.297Z,20.33
2017-09-27T07:08:38.298Z,18.67
2017-09-27T07:11:06.464Z,19.57
2017-09-27T07:13:34.567Z,26.50
2017-09-27T07:16:03.420Z,22.10
2017-09-27T07:18:32.278Z,23.73
2017-09-27T07:21:00.481Z,24.47
2017-09-27T07:23:28.572Z,19.90
2017-09-27T07:25:56.712Z,21.43
2017-09-27T07:28:24.798Z,21.97
2017-09-27T07:30:53.676Z,24.13
2017-09-27T07:33:21.763Z,21.93
2017-09-27T07:35:50.635Z,24.50
2017-09-27T07:38:18.731Z,23.67
2017-09-27T07:40:47.600Z,23.77
2017-09-27T07:43:15.691Z,23.83
2017-09-27T07:45:44.559Z,23.50
2017-09-27T07:48:13.435Z,24.57
2017-09-27T07:53:15.124Z,22.37
2017-09-27T07:55:43.989Z,23.97
2017-09-27T07:58:12.076Z,22.17
2017-09-27T08:00:40.939Z,22.00
2017-09-27T08:03:09.147Z,23.77
2017-09-27T08:05:37.242Z,19.80
2017-09-27T08:08:05.436Z,24.00
2017-09-27T08:10:33.581Z,23.70
2017-09-27T08:13:01.836Z,25.13
2017-09-27T08:15:29.936Z,22.17
2017-09-27T08:17:58.040Z,20.80
2017-09-27T08:20:26.130Z,23.40
2017-09-27T08:22:54.226Z,23.70
2017-09-27T08:25:22.603Z,21.97
2017-09-27T08:27:50.708Z,20.80
2017-09-27T08:30:18.792Z,23.10
2017-09-27T08:32:47.003Z,23.90
2017-09-27T08:35:15.083Z,24.30
2017-09-27T08:37:43.176Z,23.83
2017-09-27T08:40:11.439Z,24.80
2017-09-27T08:42:39.536Z,23.60
2017-09-27T08:45:07.767Z,24.57
2017-09-27T08:47:35.859Z,23.87
2017-09-27T08:50:03.967Z,20.73
2017-09-27T08:52:32.068Z,23.23
2017-09-27T08:55:01.073Z,20.20
2017-09-27T08:57:30.688Z,23.93
2017-09-27T08:59:59.548Z,23.07
2017-09-27T09:02:27.646Z,21.50
2017-09-27T09:04:55.730Z,21.70
2017-09-27T09:07:24.600Z,23.43
2017-09-27T09:09:52.787Z,24.10
2017-09-27T09:15:19.705Z,24.20
2017-09-27T09:17:47.899Z,23.93
2017-09-27T09:20:15.984Z,24.37
2017-09-27T09:22:44.074Z,20.23
2017-09-27T09:25:12.169Z,18.90
2017-09-27T09:27:40.261Z,21.20
2017-09-27T09:30:08.460Z,22.23
2017-09-27T09:32:36.624Z,18.10
2017-09-27T09:35:04.707Z,21.53
2017-09-27T09:37:32.798Z,18.43
2017-09-27T09:40:01.760Z,19.40
2017-09-27T09:42:29.858Z,20.57
2017-09-27T09:44:58.100Z,19.70
2017-09-27T09:47:26.183Z,23.40
2017-09-27T09:49:54.271Z,18.90
2017-09-27T09:52:22.390Z,18.90
2017-09-27T09:54:50.455Z,21.40
2017-09-27T09:57:18.550Z,21.70
2017-09-27T09:59:46.748Z,24.17
2017-09-27T10:02:14.888Z,24.67
2017-09-27T10:04:43.747Z,22.63
2017-09-27T10:07:11.843Z,22.50
2017-09-27T10:09:39.924Z,22.03
2017-09-27T10:12:08.017Z,19.70
2017-09-27T10:14:36.870Z,21.13
2017-09-27T10:17:04.960Z,20.80
2017-09-27T10:19:33.136Z,22.23
2017-09-27T10:22:01.220Z,20.60
2017-09-27T10:24:29.344Z,20.50
2017-09-27T10:26:57.542Z,19.83
2017-09-27T10:29:27.257Z,21.73
2017-09-27T10:31:56.116Z,23.70
2017-09-27T10:34:24.211Z,21.10
2017-09-27T10:36:52.379Z,20.60
2017-09-27T10:39:20.465Z,22.03
2017-09-27T10:41:48.628Z,20.03
2017-09-27T10:44:16.732Z,19.80
2017-09-27T10:46:44.817Z,18.70
2017-09-27T10:49:12.923Z,19.40
2017-09-27T10:51:41.024Z,20.00
2017-09-27T10:54:10.073Z,21.73
2017-09-27T10:56:38.177Z,20.80
2017-09-27T10:59:06.431Z,19.53
2017-09-27T11:01:34.526Z,19.00
2017-09-27T11:04:02.623Z,22.03
2017-09-27T11:06:31.476Z,21.93
2017-09-27T11:08:59.563Z,20.20
2017-09-27T11:11:28.447Z,18.17
2017-09-27T11:13:57.316Z,19.60
2017-09-27T11:16:25.519Z,19.63
2017-09-27T11:18:53.780Z,19.23
2017-09-27T11:21:21.871Z,17.10
2017-09-27T11:23:49.972Z,21.50
2017-09-27T11:26:18.068Z,18.20
2017-09-27T11:28:46.327Z,18.20
2017-09-27T11:31:14.383Z,16.07
2017-09-27T11:33:42.487Z,15.70
2017-09-27T11:36:10.588Z,15.87
2017-09-27T11:38:39.452Z,16.20
2017-09-27T11:41:07.544Z,16.83
2017-09-27T11:43:36.404Z,15.90
2017-09-27T11:46:04.507Z,16.20
2017-09-27T11:48:33.480Z,18.80
2017-09-27T11:51:01.765Z,17.13
2017-09-27T11:53:29.864Z,15.33
2017-09-27T11:55:58.001Z,16.77
2017-09-27T11:58:26.087Z,14.90
2017-09-27T12:00:55.060Z,19.00
2017-09-27T12:03:23.160Z,17.40
2017-09-27T12:05:51.609Z,17.20
2017-09-27T12:08:21.426Z,17.07
2017-09-27T12:10:50.410Z,16.03
2017-09-27T12:13:18.502Z,15.60
2017-09-27T12:15:47.039Z,15.80
2017-09-27T12:18:15.132Z,15.50
2017-09-27T12:20:43.513Z,20.97
2017-09-27T12:23:12.373Z,14.77
2017-09-27T12:25:40.464Z,14.83
2017-09-27T12:28:10.076Z,14.17
2017-09-27T12:30:38.172Z,14.30
2017-09-27T12:33:07.035Z,17.40
2017-09-27T12:35:35.232Z,17.43
2017-09-27T12:38:04.370Z,17.60
2017-09-27T12:40:32.427Z,13.90
2017-09-27T12:43:00.527Z,15.40
2017-09-27T12:45:28.623Z,13.83
2017-09-27T12:47:57.499Z,15.67
2017-09-27T12:50:26.362Z,12.93
2017-09-27T12:52:54.460Z,17.17
2017-09-27T12:55:22.547Z,12.60
2017-09-27T12:57:51.403Z,15.40
2017-09-27T13:00:19.491Z,15.73
2017-09-27T13:02:47.665Z,13.20
2017-09-27T13:05:15.763Z,15.87
2017-09-27T13:07:44.823Z,14.00
2017-09-27T13:10:12.971Z,13.17
2017-09-27T13:12:41.064Z,14.70
2017-09-27T13:15:09.931Z,12.60
2017-09-27T13:17:38.139Z,16.60
2017-09-27T13:20:06.490Z,15.13
2017-09-27T13:22:34.571Z,14.60
2017-09-27T13:25:02.748Z,13.97
2017-09-27T13:27:30.832Z,14.53
2017-09-27T13:29:58.928Z,15.70
2017-09-27T13:32:27.049Z,15.17
2017-09-27T13:34:55.145Z,14.97
2017-09-27T13:37:24.210Z,14.30
2017-09-27T13:39:52.397Z,13.70
2017-09-27T13:42:20.560Z,14.70
2017-09-27T13:44:48.653Z,14.00
2017-09-27T13:47:16.751Z,13.87
2017-09-27T13:49:44.900Z,13.50
2017-09-27T13:52:12.995Z,14.53
2017-09-27T13:54:41.095Z,13.87
2017-09-27T13:57:09.193Z,13.70
2017-09-27T13:59:37.274Z,12.80
2017-09-27T14:02:05.381Z,13.60
2017-09-27T14:04:33.525Z,12.00
2017-09-27T14:07:01.781Z,12.40
2017-09-27T14:09:29.977Z,13.10
2017-09-27T14:11:58.954Z,12.60
2017-09-27T14:14:27.069Z,12.93
2017-09-27T14:16:55.190Z,12.00
2017-09-27T14:19:23.384Z,11.00
2017-09-27T14:21:51.519Z,12.77
2017-09-27T14:24:19.705Z,11.93
2017-09-27T14:26:47.801Z,11.60
2017-09-27T14:29:15.901Z,9.43
2017-09-27T14:31:43.993Z,12.23
2017-09-27T14:34:12.079Z,9.63
2017-09-27T14:36:40.265Z,11.67
2017-09-27T14:39:08.429Z,12.27
2017-09-27T14:41:36.613Z,10.33
2017-09-27T14:44:06.307Z,11.00
2017-09-27T14:46:34.592Z,11.83
2017-09-27T14:49:02.680Z,13.13
2017-09-27T14:51:30.931Z,12.53
2017-09-27T14:54:00.536Z,11.10
2017-09-27T14:56:28.643Z,11.30
2017-09-27T14:58:56.799Z,12.07
2017-09-27T15:01:24.948Z,12.27
2017-09-27T15:03:53.035Z,12.70
2017-09-27T15:06:21.891Z,12.13
2017-09-27T15:08:49.988Z,11.40
2017-09-27T15:11:18.163Z,11.70
2017-09-27T15:13:46.423Z,11.70
2017-09-27T15:16:16.019Z,11.50
2017-09-27T15:18:44.117Z,10.67
2017-09-27T15:21:12.967Z,12.10
2017-09-27T15:23:41.065Z,11.07
2017-09-27T15:26:09.153Z,12.57
2017-09-27T15:28:38.011Z,11.10
2017-09-27T15:31:06.115Z,12.30
2017-09-27T15:33:34.989Z,12.33
2017-09-27T15:36:03.084Z,10.97
2017-09-27T15:38:31.312Z,12.40
2017-09-27T15:40:59.410Z,12.17
2017-09-27T15:43:27.504Z,12.70
2017-09-27T15:45:55.639Z,12.27
2017-09-27T15:48:23.739Z,12.80
2017-09-27T15:50:51.823Z,11.90
2017-09-27T15:53:19.940Z,11.70
2017-09-27T15:55:48.030Z,10.70
2017-09-27T15:58:16.265Z,10.27
2017-09-27T16:00:44.317Z,11.70
2017-09-27T16:03:12.411Z,11.37
2017-09-27T16:05:40.628Z,9.60
2017-09-27T16:08:08.896Z,11.40
2017-09-27T16:10:36.993Z,12.10
2017-09-27T16:13:05.083Z,12.83
2017-09-27T16:15:33.184Z,11.90
2017-09-27T16:18:01.271Z,13.20
2017-09-27T16:20:29.355Z,14.30
2017-09-27T16:22:58.216Z,14.23
2017-09-27T16:25:26.306Z,15.77
2017-09-27T16:27:55.286Z,14.13
2017-09-27T16:30:24.144Z,14.40
2017-09-27T16:32:52.270Z,14.17
2017-09-27T16:35:20.354Z,14.40
2017-09-27T16:40:23.098Z,10.80
2017-09-27T16:42:51.200Z,12.93
2017-09-27T16:45:20.171Z,13.63
2017-09-27T16:47:48.443Z,10.57
2017-09-27T16:50:16.604Z,14.97
2017-09-27T16:52:44.702Z,15.43
2017-09-27T16:55:13.550Z,16.23
2017-09-27T16:57:41.630Z,14.67
2017-09-27T17:00:09.723Z,15.53
2017-09-27T17:02:37.814Z,13.53
2017-09-27T17:05:06.664Z,16.57
2017-09-27T17:07:34.896Z,13.10
2017-09-27T17:10:02.944Z,15.40
2017-09-27T17:12:31.020Z,15.67
2017-09-27T17:14:59.159Z,16.70
2017-09-27T17:17:27.243Z,17.57
2017-09-27T17:19:56.271Z,17.00
2017-09-27T17:22:24.350Z,14.50
2017-09-27T17:24:52.455Z,13.63
2017-09-27T17:27:20.640Z,13.77
2017-09-27T17:29:48.729Z,13.90
2017-09-27T17:32:16.813Z,12.83
2017-09-27T17:34:44.904Z,11.23
2017-09-27T17:37:12.999Z,12.73
2017-09-27T17:39:41.094Z,11.53
2017-09-27T17:42:09.183Z,13.20
2017-09-27T17:44:38.163Z,11.90
2017-09-27T17:47:06.244Z,11.47
2017-09-27T17:49:34.330Z,11.40
2017-09-27T17:52:02.403Z,11.30
2017-09-27T17:54:30.510Z,12.60
2017-09-27T17:56:58.607Z,26.83
2017-09-27T17:59:26.697Z,22.00
2017-09-27T18:01:55.568Z,18.73
2017-09-27T18:04:29.368Z,18.27
2017-09-27T18:07:16.229Z,17.30
2017-09-27T18:12:46.724Z,15.53
2017-09-27T18:15:20.530Z,18.53
2017-09-27T18:17:48.678Z,14.50
2017-09-27T18:20:16.779Z,13.33
2017-09-27T18:22:44.958Z,16.20
2017-09-27T18:25:13.040Z,15.23
2017-09-27T18:27:41.282Z,14.83
2017-09-27T18:30:10.151Z,14.00
2017-09-27T18:32:38.274Z,16.13
2017-09-27T18:35:06.360Z,17.23
2017-09-27T18:37:34.467Z,14.77
2017-09-27T18:40:02.589Z,13.37
2017-09-27T18:42:30.962Z,14.63
2017-09-27T18:44:59.382Z,14.30
2017-09-27T18:47:27.462Z,16.70
2017-09-27T18:49:55.654Z,14.40
2017-09-27T18:52:23.786Z,15.40
2017-09-27T18:54:51.956Z,13.93
2017-09-27T18:57:20.040Z,16.43
2017-09-27T18:59:48.125Z,16.30
2017-09-27T19:02:16.207Z,15.27
2017-09-27T19:04:44.318Z,17.07
2017-09-27T19:07:12.394Z,13.80
2017-09-27T19:09:40.579Z,15.17
2017-09-27T19:12:08.714Z,14.63
2017-09-27T19:14:36.923Z,13.30
2017-09-27T19:17:05.009Z,13.80
2017-09-27T19:19:33.313Z,14.60
2017-09-27T19:22:01.413Z,14.30
2017-09-27T19:24:29.508Z,14.00
2017-09-27T19:26:58.363Z,14.93
2017-09-27T19:29:26.457Z,15.93
2017-09-27T19:31:54.613Z,14.40
2017-09-27T19:34:22.797Z,15.37
2017-09-27T19:36:50.893Z,15.77
2017-09-27T19:39:19.755Z,15.97
2017-09-27T19:41:47.846Z,15.83
2017-09-27T19:44:16.711Z,16.30
2017-09-27T19:46:44.791Z,17.20
2017-09-27T19:49:12.993Z,17.50
2017-09-27T19:51:41.308Z,18.50
2017-09-27T19:54:09.499Z,17.90
2017-09-27T19:56:38.278Z,20.70
2017-09-27T19:59:06.555Z,18.60
2017-09-27T20:01:35.494Z,18.23
2017-09-27T20:04:03.912Z,18.67
2017-09-27T20:06:33.170Z,18.40
2017-09-27T20:09:01.689Z,17.77
2017-09-27T20:11:29.843Z,20.37
2017-09-27T20:13:57.924Z,18.73
2017-09-27T20:16:26.028Z,21.03
2017-09-27T20:18:54.295Z,20.47
2017-09-27T20:21:23.175Z,20.20
2017-09-27T20:23:51.654Z,19.77
2017-09-27T20:26:19.870Z,24.70
2017-09-27T20:28:48.063Z,20.03
2017-09-27T20:31:16.958Z,20.00
2017-09-27T20:33:45.113Z,17.80
2017-09-27T20:36:13.443Z,18.70
2017-09-27T20:38:41.870Z,17.83
2017-09-27T20:41:10.116Z,19.23
2017-09-27T20:43:38.209Z,17.97
2017-09-27T20:46:06.295Z,18.90
2017-09-27T20:48:34.396Z,22.27
2017-09-27T20:51:02.817Z,22.43
2017-09-27T20:53:30.908Z,21.07
2017-09-27T20:55:59.148Z,20.10
2017-09-27T20:58:27.247Z,20.00
2017-09-27T21:00:55.327Z,20.23
2017-09-27T21:03:23.459Z,22.30
2017-09-27T21:05:51.550Z,22.33
2017-09-27T21:08:20.400Z,19.60
2017-09-27T21:10:48.492Z,20.70
2017-09-27T21:13:16.697Z,20.30
2017-09-27T21:15:45.552Z,20.70
2017-09-27T21:18:13.638Z,25.00
2017-09-27T21:20:41.740Z,18.67
2017-09-27T21:23:09.828Z,23.30
2017-09-27T21:25:37.918Z,25.60
2017-09-27T21:28:06.009Z,23.50
2017-09-27T21:30:34.090Z,23.23
2017-09-27T21:33:02.947Z,23.77
2017-09-27T21:35:31.035Z,21.90
2017-09-27T21:37:59.127Z,19.63
2017-09-27T21:40:27.979Z,23.03
2017-09-27T21:42:56.067Z,23.87
2017-09-27T21:45:24.176Z,21.97
2017-09-27T21:47:52.250Z,29.97
2017-09-27T21:50:20.335Z,27.90
2017-09-27T21:52:48.416Z,23.13
2017-09-27T21:55:16.491Z,21.43
2017-09-27T21:57:44.620Z,20.43
2017-09-27T22:00:12.703Z,20.73
2017-09-27T22:02:40.802Z,22.53
2017-09-27T22:05:08.876Z,21.30
2017-09-27T22:07:36.968Z,21.23
2017-09-27T22:10:05.051Z,24.60
2017-09-27T22:12:33.156Z,21.20
2017-09-27T22:15:01.290Z,20.60
2017-09-27T22:17:29.367Z,22.57
2017-09-27T22:19:58.227Z,26.70
2017-09-27T22:22:26.302Z,21.03
2017-09-27T22:24:54.403Z,19.97
2017-09-27T22:27:23.256Z,22.87
2017-09-27T22:29:51.344Z,20.27
2017-09-27T22:32:19.422Z,21.33
2017-09-27T22:34:48.289Z,25.00
2017-09-27T22:37:16.364Z,22.87
2017-09-27T22:39:44.462Z,25.73
2017-09-27T22:42:13.311Z,24.70
2017-09-27T22:44:41.394Z,26.20
2017-09-27T22:47:09.474Z,26.63
2017-09-27T22:49:37.559Z,23.47
2017-09-27T22:52:06.417Z,26.90
2017-09-27T22:54:34.492Z,29.43
2017-09-27T22:57:02.590Z,26.77
2017-09-27T22:59:30.848Z,31.07
2017-09-27T23:02:00.439Z,28.60
2017-09-27T23:04:28.531Z,24.53
2017-09-27T23:06:56.796Z,22.77
2017-09-27T23:09:25.663Z,23.90
2017-09-27T23:11:53.742Z,24.30
2017-09-27T23:14:21.872Z,29.77
2017-09-27T23:16:50.203Z,35.00
2017-09-27T23:19:18.295Z,34.27
2017-09-27T23:21:47.147Z,35.23
2017-09-27T23:24:15.240Z,33.60
2017-09-27T23:26:43.334Z,31.70
2017-09-27T23:29:11.431Z,28.73
2017-09-27T23:31:39.594Z,27.97
2017-09-27T23:34:07.724Z,26.93
2017-09-27T23:36:35.795Z,26.87
2017-09-27T23:39:04.654Z,23.57
2017-09-27T23:41:32.736Z,26.77
2017-09-27T23:44:00.828Z,23.50
2017-09-27T23:46:29.675Z,25.23
2017-09-27T23:48:57.765Z,22.90
2017-09-27T23:51:25.855Z,23.63
2017-09-27T23:53:54.703Z,23.30
2017-09-27T23:56:22.796Z,25.70
2017-09-27T23:58:52.175Z,24.40
